Beaver, Oklahoma
Current Conditions -  °F | °C
As of 1:55 PM on Monday 22 Dec 2014 (Local Time) from KLBL Reporting Station
Few Clouds Few Clouds  
Wind Chill: 52°   Ceiling: Unl
Heat Index: 52°   Visibility: 10mi
Dew Point: 30°   Wind: 20mph
Humidity: 44%   Direction: 350°N
Pressure: 29.65"   Gusts: 24mph
Location:  36.82°N, 100.52°W
Report Text: KLBL 221955Z AUTO 35017G21KT 10SM FEW042 11/M01 A2965 RMK AO1
Loading
Personal Weather Stations






























Interactive Weather Map New forecast layout! Learn more

10-Day Weather Forecast

Advertisements
Track Severe Weather on mobile